createdAt,value
2023-02-14T00:01:11.650Z,25.20
2023-02-14T00:03:38.760Z,22.45
2023-02-14T00:06:10.328Z,22.38
2023-02-14T00:08:37.641Z,26.25
2023-02-14T00:11:05.581Z,24.25
2023-02-14T00:13:32.800Z,26.58
2023-02-14T00:15:59.764Z,20.17
2023-02-14T00:18:46.643Z,19.48
2023-02-14T00:21:13.545Z,24.90
2023-02-14T00:23:40.317Z,23.65
2023-02-14T00:26:14.128Z,22.42
2023-02-14T00:28:41.058Z,22.90
2023-02-14T00:31:07.961Z,24.02
2023-02-14T00:33:34.807Z,23.25
2023-02-14T00:36:04.251Z,23.52
2023-02-14T00:38:31.057Z,23.13
2023-02-14T00:40:58.065Z,22.77
2023-02-14T00:43:25.212Z,21.33
2023-02-14T00:45:52.005Z,21.55
2023-02-14T00:48:18.802Z,24.05
2023-02-14T00:50:48.584Z,22.48
2023-02-14T00:53:15.439Z,21.92
2023-02-14T00:55:46.310Z,22.85
2023-02-14T00:58:13.201Z,26.20
2023-02-14T01:00:40.103Z,21.90
2023-02-14T01:03:06.889Z,22.50
2023-02-14T01:05:33.672Z,22.05
2023-02-14T01:08:00.529Z,23.63
2023-02-14T01:10:27.377Z,20.60
2023-02-14T01:12:54.163Z,20.95
2023-02-14T01:15:20.944Z,21.70
2023-02-14T01:17:47.769Z,21.45
2023-02-14T01:20:14.878Z,21.27
2023-02-14T01:22:42.593Z,22.23
2023-02-14T01:25:09.556Z,22.42
2023-02-14T01:27:36.915Z,19.98
2023-02-14T01:30:04.234Z,20.73
2023-02-14T01:32:31.974Z,20.38
2023-02-14T01:34:59.123Z,19.02
2023-02-14T01:37:26.420Z,18.08
2023-02-14T01:39:53.273Z,19.23
2023-02-14T01:42:20.069Z,20.77
2023-02-14T01:44:49.814Z,18.70
2023-02-14T01:47:17.566Z,17.63
2023-02-14T01:49:52.483Z,18.40
2023-02-14T01:52:25.298Z,19.08
2023-02-14T01:55:10.722Z,17.80
2023-02-14T01:57:43.894Z,16.73
2023-02-14T02:00:30.312Z,17.27
2023-02-14T02:02:59.954Z,17.52
2023-02-14T02:05:27.381Z,17.80
2023-02-14T02:07:57.415Z,16.90
2023-02-14T02:10:24.324Z,15.95
2023-02-14T02:12:52.898Z,17.55
2023-02-14T02:15:25.285Z,18.60
2023-02-14T02:18:26.826Z,16.10
2023-02-14T02:21:05.738Z,18.73
2023-02-14T02:23:56.349Z,16.50
2023-02-14T02:26:41.284Z,16.60
2023-02-14T02:29:19.976Z,17.63
2023-02-14T02:31:49.624Z,16.13
2023-02-14T02:34:58.206Z,16.83
2023-02-14T02:37:51.369Z,15.43
2023-02-14T02:40:39.966Z,14.40
2023-02-14T02:43:32.926Z,15.20
2023-02-14T02:46:35.145Z,14.85
2023-02-14T02:49:10.058Z,16.33
2023-02-14T02:52:11.483Z,15.93
2023-02-14T02:54:44.352Z,16.90
2023-02-14T02:57:22.185Z,16.70
2023-02-14T02:59:51.044Z,16.30
2023-02-14T03:02:28.001Z,16.23
2023-02-14T03:04:58.516Z,15.73
2023-02-14T03:07:37.479Z,17.27
2023-02-14T03:10:18.208Z,13.80
2023-02-14T03:12:53.748Z,14.10
2023-02-14T03:15:26.255Z,16.15
2023-02-14T03:18:02.171Z,15.70
2023-02-14T03:20:46.952Z,18.50
2023-02-14T03:23:22.480Z,18.13
2023-02-14T03:26:22.175Z,16.65
2023-02-14T03:29:03.940Z,15.95
2023-02-14T03:31:40.900Z,15.05
2023-02-14T03:34:50.894Z,15.25
2023-02-14T03:37:24.775Z,16.77
2023-02-14T03:40:13.340Z,17.10
2023-02-14T03:42:54.866Z,17.45
2023-02-14T03:45:29.094Z,19.90
2023-02-14T03:48:02.005Z,15.52
2023-02-14T03:50:29.722Z,13.40
2023-02-14T03:52:58.158Z,14.02
2023-02-14T03:55:32.944Z,14.70
2023-02-14T03:58:16.975Z,14.20
2023-02-14T04:00:46.604Z,15.25
2023-02-14T04:03:15.269Z,14.77
2023-02-14T04:05:46.821Z,15.68
2023-02-14T04:08:22.132Z,15.10
2023-02-14T04:10:50.517Z,15.88
2023-02-14T04:13:17.280Z,15.40
2023-02-14T04:15:44.314Z,15.30
2023-02-14T04:18:29.597Z,14.35
2023-02-14T04:20:56.379Z,14.30
2023-02-14T04:23:23.300Z,14.52
2023-02-14T04:25:50.086Z,16.50
2023-02-14T04:28:16.917Z,15.05
2023-02-14T04:30:43.720Z,16.17
2023-02-14T04:33:10.806Z,15.82
2023-02-14T04:35:38.059Z,16.50
2023-02-14T04:38:05.566Z,14.55
2023-02-14T04:40:32.362Z,15.63
2023-02-14T04:43:01.407Z,14.75
2023-02-14T04:45:28.267Z,14.43
2023-02-14T04:47:55.052Z,13.98
2023-02-14T04:50:23.549Z,14.30
2023-02-14T04:52:50.377Z,16.13
2023-02-14T04:55:17.225Z,15.60
2023-02-14T04:57:44.006Z,14.80
2023-02-14T05:00:11.511Z,14.27
2023-02-14T05:02:38.375Z,14.65
2023-02-14T05:05:05.434Z,17.38
2023-02-14T05:07:32.237Z,15.20
2023-02-14T05:09:59.055Z,14.90
2023-02-14T05:12:25.850Z,15.23
2023-02-14T05:14:52.699Z,14.00
2023-02-14T05:17:19.475Z,15.75
2023-02-14T05:19:46.267Z,18.95
2023-02-14T05:22:13.083Z,15.77
2023-02-14T05:24:39.860Z,15.25
2023-02-14T05:27:07.626Z,16.02
2023-02-14T05:29:34.392Z,15.48
2023-02-14T05:32:01.220Z,15.63
2023-02-14T05:34:28.071Z,15.02
2023-02-14T05:36:55.113Z,15.32
2023-02-14T05:39:21.889Z,14.23
2023-02-14T05:41:48.721Z,14.13
2023-02-14T05:44:15.482Z,15.27
2023-02-14T05:46:42.269Z,15.93
2023-02-14T05:49:09.074Z,15.05
2023-02-14T05:51:35.948Z,15.93
2023-02-14T05:54:02.765Z,16.20
2023-02-14T05:56:29.593Z,16.02
2023-02-14T05:58:56.334Z,17.45
2023-02-14T06:01:23.201Z,16.08
2023-02-14T06:03:49.965Z,17.25
2023-02-14T06:06:16.781Z,16.88
2023-02-14T06:08:43.538Z,15.32
2023-02-14T06:11:10.304Z,15.85
2023-02-14T06:13:37.186Z,16.15
2023-02-14T06:16:04.957Z,17.25
2023-02-14T06:18:31.751Z,15.50
2023-02-14T06:20:58.856Z,15.73
2023-02-14T06:23:26.167Z,15.77
2023-02-14T06:25:52.990Z,17.33
2023-02-14T06:28:19.929Z,17.30
2023-02-14T06:30:47.530Z,16.08
2023-02-14T06:33:14.818Z,15.10
2023-02-14T06:35:41.718Z,14.95
2023-02-14T06:38:08.633Z,15.30
2023-02-14T06:40:35.444Z,15.20
2023-02-14T06:43:02.360Z,16.80
2023-02-14T06:45:29.251Z,15.82
2023-02-14T06:47:56.119Z,15.77
2023-02-14T06:50:23.052Z,14.60
2023-02-14T06:52:51.609Z,14.45
2023-02-14T06:55:18.901Z,16.50
2023-02-14T06:57:45.973Z,15.70
2023-02-14T07:00:15.004Z,16.33
2023-02-14T07:02:42.139Z,15.93
2023-02-14T07:05:09.178Z,15.32
2023-02-14T07:07:36.225Z,16.63
2023-02-14T07:10:05.525Z,18.98
2023-02-14T07:12:32.459Z,16.30
2023-02-14T07:14:59.394Z,17.27
2023-02-14T07:17:28.212Z,16.27
2023-02-14T07:19:57.769Z,14.45
2023-02-14T07:22:24.622Z,12.30
2023-02-14T07:24:51.502Z,14.40
2023-02-14T07:27:18.375Z,16.77
2023-02-14T07:29:45.320Z,15.45
2023-02-14T07:32:12.277Z,16.25
2023-02-14T07:34:39.305Z,15.68
2023-02-14T07:37:06.283Z,15.38
2023-02-14T07:39:33.195Z,16.45
2023-02-14T07:42:00.355Z,15.45
2023-02-14T07:44:27.385Z,17.27
2023-02-14T07:46:54.235Z,14.45
2023-02-14T07:49:21.145Z,14.02
2023-02-14T07:51:48.065Z,14.05
2023-02-14T07:54:14.996Z,16.73
2023-02-14T07:56:41.854Z,15.70
2023-02-14T07:59:08.692Z,15.48
2023-02-14T08:01:35.515Z,14.60
2023-02-14T08:04:02.336Z,15.57
2023-02-14T08:06:29.191Z,17.45
2023-02-14T08:08:55.982Z,16.30
2023-02-14T08:11:41.546Z,16.83
2023-02-14T08:14:08.470Z,15.25
2023-02-14T08:16:35.369Z,16.02
2023-02-14T08:19:02.601Z,16.10
2023-02-14T08:21:29.577Z,15.98
2023-02-14T08:23:56.799Z,16.67
2023-02-14T08:26:23.607Z,17.70
2023-02-14T08:28:50.654Z,15.10
2023-02-14T08:31:35.600Z,16.90
2023-02-14T08:34:07.276Z,16.05
2023-02-14T08:36:34.981Z,15.75
2023-02-14T08:39:03.922Z,17.60
2023-02-14T08:41:30.932Z,16.95
2023-02-14T08:43:57.836Z,16.38
2023-02-14T08:46:24.699Z,15.80
2023-02-14T08:48:53.457Z,16.05
2023-02-14T08:51:21.969Z,17.00
2023-02-14T08:53:50.987Z,17.05
2023-02-14T08:56:18.112Z,16.60
2023-02-14T08:58:44.982Z,16.65
2023-02-14T09:01:17.289Z,17.02
2023-02-14T09:03:44.768Z,17.00
2023-02-14T09:06:17.232Z,15.85
2023-02-14T09:08:46.572Z,17.15
2023-02-14T09:11:18.384Z,16.30
2023-02-14T09:13:46.457Z,16.98
2023-02-14T09:16:14.470Z,15.73
2023-02-14T09:18:41.315Z,16.08
2023-02-14T09:21:15.520Z,16.77
2023-02-14T09:23:42.298Z,16.83
2023-02-14T09:26:11.182Z,17.70
2023-02-14T09:28:38.184Z,16.35
2023-02-14T09:31:17.248Z,16.52
2023-02-14T09:33:44.965Z,16.20
2023-02-14T09:36:30.461Z,15.90
2023-02-14T09:38:57.320Z,17.23
2023-02-14T09:41:30.304Z,17.65
2023-02-14T09:44:19.916Z,16.85
2023-02-14T09:46:51.367Z,18.25
2023-02-14T09:49:22.810Z,17.48
2023-02-14T09:51:52.849Z,18.63
2023-02-14T09:54:28.888Z,16.08
2023-02-14T09:57:07.685Z,16.42
2023-02-14T09:59:39.965Z,18.27
2023-02-14T10:02:37.716Z,17.23
2023-02-14T10:05:17.744Z,17.55
2023-02-14T10:07:59.836Z,15.65
2023-02-14T10:10:26.902Z,17.02
2023-02-14T10:13:21.757Z,17.40
2023-02-14T10:15:59.609Z,17.27
2023-02-14T10:18:36.851Z,18.35
2023-02-14T10:21:07.873Z,17.65
2023-02-14T10:24:14.139Z,16.92
2023-02-14T10:26:41.512Z,16.33
2023-02-14T10:29:15.344Z,18.77
2023-02-14T10:32:02.878Z,17.10
2023-02-14T10:34:54.099Z,18.43
2023-02-14T10:37:35.933Z,18.70
2023-02-14T10:40:17.646Z,19.10
2023-02-14T10:42:54.819Z,18.15
2023-02-14T10:45:41.863Z,17.67
2023-02-14T10:48:13.336Z,17.33
2023-02-14T10:50:55.362Z,18.60
2023-02-14T10:53:46.775Z,18.03
2023-02-14T10:56:27.822Z,18.77
2023-02-14T10:59:01.643Z,18.70
2023-02-14T11:01:28.964Z,18.60
2023-02-14T11:04:03.835Z,19.30
2023-02-14T11:06:31.107Z,19.77
2023-02-14T11:08:58.316Z,18.37
2023-02-14T11:11:35.289Z,18.53
2023-02-14T11:14:36.774Z,18.33
2023-02-14T11:17:22.187Z,18.70
2023-02-14T11:20:30.538Z,20.03
2023-02-14T11:22:57.635Z,17.60
2023-02-14T11:25:27.396Z,19.40
2023-02-14T11:28:07.787Z,19.87
2023-02-14T11:30:41.076Z,18.60
2023-02-14T11:33:30.251Z,19.17
2023-02-14T11:35:57.858Z,18.80
2023-02-14T11:38:39.894Z,17.80
2023-02-14T11:41:12.522Z,18.10
2023-02-14T11:43:44.504Z,16.60
2023-02-14T11:46:20.347Z,18.00
2023-02-14T11:49:06.941Z,18.20
2023-02-14T11:51:45.412Z,17.50
2023-02-14T11:54:26.306Z,15.67
2023-02-14T11:57:17.240Z,16.07
2023-02-14T11:59:52.929Z,15.87
2023-02-14T12:02:39.667Z,15.20
2023-02-14T12:05:28.554Z,15.27
2023-02-14T12:08:05.159Z,14.03
2023-02-14T12:10:36.780Z,15.37
2023-02-14T12:13:26.048Z,15.07
2023-02-14T12:15:56.474Z,14.40
2023-02-14T12:18:26.183Z,14.80
2023-02-14T12:21:16.888Z,13.73
2023-02-14T12:23:56.280Z,16.10
2023-02-14T12:26:32.236Z,14.30
2023-02-14T12:29:13.994Z,14.87
2023-02-14T12:31:42.176Z,14.80
2023-02-14T12:34:13.105Z,14.57
2023-02-14T12:37:13.893Z,14.67
2023-02-14T12:39:53.671Z,15.17
2023-02-14T12:42:39.513Z,14.53
2023-02-14T12:45:18.458Z,14.90
2023-02-14T12:48:09.585Z,14.30
2023-02-14T12:51:29.636Z,14.57
2023-02-14T12:54:11.296Z,14.57
2023-02-14T12:56:56.304Z,14.20
2023-02-14T12:59:26.245Z,14.70
2023-02-14T13:02:24.395Z,13.73
2023-02-14T13:05:01.592Z,14.20
2023-02-14T13:08:16.603Z,13.53
2023-02-14T13:11:01.865Z,12.80
2023-02-14T13:13:55.930Z,14.17
2023-02-14T13:16:30.380Z,14.03
2023-02-14T13:19:07.161Z,13.50
2023-02-14T13:21:37.465Z,14.07
2023-02-14T13:24:14.903Z,13.57
2023-02-14T13:26:45.266Z,14.00
2023-02-14T13:29:20.583Z,13.30
2023-02-14T13:31:48.564Z,13.33
2023-02-14T13:34:31.841Z,14.10
2023-02-14T13:37:00.475Z,14.60
2023-02-14T13:39:37.777Z,14.40
2023-02-14T13:42:05.924Z,13.70
2023-02-14T13:44:38.860Z,13.97
2023-02-14T13:47:07.795Z,14.40
2023-02-14T13:49:39.788Z,13.37
2023-02-14T13:52:06.800Z,13.33
2023-02-14T13:54:35.914Z,14.03
2023-02-14T13:57:25.092Z,14.67
2023-02-14T14:00:17.868Z,14.70
2023-02-14T14:02:45.671Z,14.23
2023-02-14T14:05:30.663Z,13.80
2023-02-14T14:08:20.668Z,14.87
2023-02-14T14:11:01.750Z,15.10
2023-02-14T14:13:40.877Z,14.93
2023-02-14T14:16:29.038Z,14.00
2023-02-14T14:19:04.897Z,14.67
2023-02-14T14:21:37.728Z,13.07
2023-02-14T14:24:25.802Z,14.03
2023-02-14T14:27:18.420Z,14.90
2023-02-14T14:29:45.546Z,14.87
2023-02-14T14:32:18.303Z,14.10
2023-02-14T14:34:53.878Z,14.73
2023-02-14T14:37:23.771Z,14.27
2023-02-14T14:39:57.619Z,14.60
2023-02-14T14:42:28.926Z,15.60
2023-02-14T14:45:01.896Z,14.90
2023-02-14T14:47:43.000Z,16.50
2023-02-14T14:50:23.088Z,16.63
2023-02-14T14:52:53.584Z,15.83
2023-02-14T14:55:27.437Z,17.40
2023-02-14T14:57:59.521Z,16.47
2023-02-14T15:00:34.765Z,16.73
2023-02-14T15:03:15.614Z,17.47
2023-02-14T15:05:43.437Z,17.13
2023-02-14T15:08:24.869Z,18.63
2023-02-14T15:10:56.136Z,17.10
2023-02-14T15:13:52.428Z,16.40
2023-02-14T15:16:31.517Z,15.67
2023-02-14T15:19:01.468Z,14.87
2023-02-14T15:21:28.420Z,15.07
2023-02-14T15:23:55.499Z,15.83
2023-02-14T15:26:29.234Z,15.60
2023-02-14T15:29:07.429Z,15.10
2023-02-14T15:31:42.123Z,16.03
2023-02-14T15:34:11.338Z,16.87
2023-02-14T15:36:38.220Z,16.13
2023-02-14T15:39:07.964Z,14.57
2023-02-14T15:41:34.982Z,15.53
2023-02-14T15:44:02.102Z,16.50
2023-02-14T15:46:38.672Z,16.77
2023-02-14T15:49:10.185Z,16.50
2023-02-14T15:51:38.517Z,16.63
2023-02-14T15:54:07.635Z,16.53
2023-02-14T15:56:41.761Z,17.00
2023-02-14T15:59:23.592Z,17.37
2023-02-14T16:02:00.135Z,17.17
2023-02-14T16:04:30.429Z,17.60
2023-02-14T16:07:25.740Z,17.43
2023-02-14T16:10:18.311Z,16.60
2023-02-14T16:13:00.696Z,16.90
2023-02-14T16:15:32.692Z,16.23
2023-02-14T16:18:01.119Z,17.60
2023-02-14T16:20:39.892Z,16.83
2023-02-14T16:23:25.218Z,18.83
2023-02-14T16:25:53.208Z,17.83
2023-02-14T16:28:20.595Z,18.08
2023-02-14T16:30:53.563Z,16.80
2023-02-14T16:33:23.622Z,17.13
2023-02-14T16:35:50.993Z,17.85
2023-02-14T16:38:20.180Z,16.25
2023-02-14T16:40:49.352Z,18.88
2023-02-14T16:43:18.640Z,19.45
2023-02-14T16:45:45.934Z,18.52
2023-02-14T16:48:15.759Z,18.60
2023-02-14T16:50:43.236Z,18.83
2023-02-14T16:53:24.095Z,19.13
2023-02-14T16:55:53.978Z,19.10
2023-02-14T16:58:25.603Z,19.60
2023-02-14T17:00:52.427Z,18.30
2023-02-14T17:03:19.371Z,20.10
2023-02-14T17:05:46.716Z,18.80
2023-02-14T17:08:15.068Z,18.35
2023-02-14T17:10:44.475Z,19.25
2023-02-14T17:13:11.780Z,18.90
2023-02-14T17:15:39.892Z,16.65
2023-02-14T17:18:11.318Z,17.25
2023-02-14T17:20:38.687Z,17.85
2023-02-14T17:23:05.521Z,17.20
2023-02-14T17:25:32.421Z,18.95
2023-02-14T17:28:01.035Z,19.05
2023-02-14T17:30:28.367Z,17.73
2023-02-14T17:32:55.372Z,20.17
2023-02-14T17:35:22.517Z,19.02
2023-02-14T17:37:49.508Z,19.83
2023-02-14T17:40:16.349Z,20.50
2023-02-14T17:42:43.224Z,19.50
2023-02-14T17:45:11.857Z,19.65
2023-02-14T17:47:41.035Z,19.45
2023-02-14T17:50:08.323Z,20.05
2023-02-14T17:52:35.221Z,19.70
2023-02-14T17:55:02.006Z,20.45
2023-02-14T17:57:28.844Z,20.90
2023-02-14T17:59:55.683Z,20.08
2023-02-14T18:02:22.539Z,20.98
2023-02-14T18:04:49.348Z,20.40
2023-02-14T18:07:16.510Z,19.63
2023-02-14T18:09:43.285Z,19.92
2023-02-14T18:12:14.488Z,19.65
2023-02-14T18:14:42.212Z,20.13
2023-02-14T18:17:09.138Z,19.67
2023-02-14T18:19:35.998Z,19.98
2023-02-14T18:22:02.809Z,20.42
2023-02-14T18:24:29.623Z,18.50
2023-02-14T18:26:56.465Z,18.75
2023-02-14T18:29:23.370Z,19.55
2023-02-14T18:31:50.480Z,18.17
2023-02-14T18:34:17.426Z,20.67
2023-02-14T18:36:44.259Z,19.05
2023-02-14T18:39:11.160Z,19.02
2023-02-14T18:41:38.105Z,18.90
2023-02-14T18:44:05.830Z,19.55
2023-02-14T18:46:35.575Z,20.60
2023-02-14T18:49:04.326Z,19.17
2023-02-14T18:51:33.695Z,17.98
2023-02-14T18:54:02.224Z,20.80
2023-02-14T18:56:34.282Z,20.05
2023-02-14T18:59:06.746Z,19.55
2023-02-14T19:01:38.441Z,19.98
2023-02-14T19:04:08.644Z,16.65
2023-02-14T19:06:36.251Z,18.00
2023-02-14T19:09:04.118Z,18.15
2023-02-14T19:11:31.804Z,17.80
2023-02-14T19:14:00.736Z,18.30
2023-02-14T19:16:31.289Z,17.77
2023-02-14T19:18:59.087Z,17.52
2023-02-14T19:21:30.483Z,13.93
2023-02-14T19:23:58.005Z,14.18
2023-02-14T19:26:30.350Z,17.50
2023-02-14T19:29:00.325Z,17.00
2023-02-14T19:31:27.834Z,14.13
2023-02-14T19:33:54.857Z,17.83
2023-02-14T19:36:24.177Z,15.32
2023-02-14T19:38:52.897Z,15.75
2023-02-14T19:41:27.195Z,18.20
2023-02-14T19:43:57.864Z,19.83
2023-02-14T19:46:25.410Z,17.65
2023-02-14T19:48:52.522Z,17.67
2023-02-14T19:51:31.469Z,18.13
2023-02-14T19:54:01.164Z,16.85
2023-02-14T19:56:30.602Z,16.50
2023-02-14T19:58:57.979Z,15.60
2023-02-14T20:01:32.010Z,16.38
2023-02-14T20:03:59.025Z,15.48
2023-02-14T20:06:27.362Z,15.35
2023-02-14T20:08:54.214Z,14.73
2023-02-14T20:11:23.985Z,13.93
2023-02-14T20:13:50.771Z,14.07
2023-02-14T20:16:17.581Z,14.13
2023-02-14T20:18:44.431Z,11.93
2023-02-14T20:21:19.065Z,14.90
2023-02-14T20:23:45.883Z,14.77
2023-02-14T20:26:18.160Z,16.38
2023-02-14T20:28:45.046Z,13.90
2023-02-14T20:31:14.915Z,16.00
2023-02-14T20:33:42.186Z,13.63
2023-02-14T20:36:09.704Z,15.70
2023-02-14T20:38:36.502Z,14.25
2023-02-14T20:41:08.481Z,15.60
2023-02-14T20:43:35.592Z,15.75
2023-02-14T20:46:03.869Z,14.73
2023-02-14T20:48:31.775Z,14.50
2023-02-14T20:50:58.847Z,14.57
2023-02-14T20:53:25.949Z,16.98
2023-02-14T20:55:53.365Z,15.52
2023-02-14T20:58:20.622Z,16.90
2023-02-14T21:00:48.971Z,13.90
2023-02-14T21:03:15.898Z,14.05
2023-02-14T21:05:43.120Z,14.75
2023-02-14T21:08:09.911Z,13.25
2023-02-14T21:10:36.681Z,14.23
2023-02-14T21:13:03.489Z,14.88
2023-02-14T21:15:30.396Z,13.48
2023-02-14T21:17:57.857Z,12.93
2023-02-14T21:20:24.700Z,14.45
2023-02-14T21:22:51.540Z,15.60
2023-02-14T21:25:18.428Z,14.40
2023-02-14T21:27:46.471Z,14.40
2023-02-14T21:30:13.707Z,15.13
2023-02-14T21:32:40.494Z,15.35
2023-02-14T21:35:07.486Z,15.13
2023-02-14T21:37:34.282Z,14.35
2023-02-14T21:40:01.110Z,15.15
2023-02-14T21:42:27.970Z,16.17
2023-02-14T21:45:13.324Z,18.90
2023-02-14T21:47:40.272Z,16.23
2023-02-14T21:50:25.984Z,16.23
2023-02-14T21:52:52.824Z,15.23
2023-02-14T21:55:19.733Z,18.67
2023-02-14T21:57:46.519Z,17.95
2023-02-14T22:00:13.686Z,16.35
2023-02-14T22:02:40.725Z,16.27
2023-02-14T22:05:08.066Z,16.35
2023-02-14T22:07:35.471Z,16.05
2023-02-14T22:10:03.496Z,14.32
2023-02-14T22:12:30.476Z,13.77
2023-02-14T22:15:00.280Z,14.25
2023-02-14T22:17:27.989Z,14.10
2023-02-14T22:19:55.232Z,13.48
2023-02-14T22:22:22.155Z,14.38
2023-02-14T22:24:49.002Z,14.02
2023-02-14T22:27:16.217Z,14.85
2023-02-14T22:29:43.248Z,14.02
2023-02-14T22:32:10.685Z,14.30
2023-02-14T22:34:37.520Z,14.73
2023-02-14T22:37:04.400Z,15.57
2023-02-14T22:39:31.183Z,13.55
2023-02-14T22:41:58.330Z,14.05
2023-02-14T22:44:25.315Z,15.80
2023-02-14T22:46:52.174Z,17.45
2023-02-14T22:49:20.277Z,17.85
2023-02-14T22:51:47.160Z,15.43
2023-02-14T22:54:15.972Z,17.25
2023-02-14T22:56:45.311Z,16.40
2023-02-14T22:59:21.790Z,14.80
2023-02-14T23:01:49.780Z,13.05
2023-02-14T23:04:18.385Z,14.70
2023-02-14T23:06:45.249Z,17.55
2023-02-14T23:09:12.974Z,15.82
2023-02-14T23:11:41.019Z,14.90
2023-02-14T23:14:26.546Z,16.13
2023-02-14T23:17:12.010Z,14.43
2023-02-14T23:19:57.303Z,13.93
2023-02-14T23:22:42.083Z,14.48
2023-02-14T23:25:11.070Z,13.52
2023-02-14T23:27:41.395Z,13.85
2023-02-14T23:30:11.988Z,14.10
2023-02-14T23:32:38.862Z,14.10
2023-02-14T23:35:06.260Z,15.20
2023-02-14T23:37:33.619Z,15.15
2023-02-14T23:40:00.496Z,15.55
2023-02-14T23:42:28.278Z,14.95
2023-02-14T23:45:15.048Z,14.25
2023-02-14T23:47:41.854Z,17.45
2023-02-14T23:50:09.095Z,15.45
2023-02-14T23:52:38.483Z,15.48
2023-02-14T23:55:05.776Z,13.32
2023-02-14T23:57:32.598Z,12.80
